createdAt,value
2024-02-02T00:00:16.617Z,0.99
2024-02-02T00:05:19.513Z,1.00
2024-02-02T00:10:24.568Z,1.13
2024-02-02T00:15:27.202Z,1.62
2024-02-02T00:20:33.082Z,2.27
2024-02-02T00:25:36.165Z,2.50
2024-02-02T00:30:39.508Z,2.41
2024-02-02T00:36:07.259Z,2.42
2024-02-02T00:41:10.314Z,2.90
2024-02-02T00:46:12.655Z,2.95
2024-02-02T00:51:15.557Z,3.34
2024-02-02T00:56:18.579Z,3.22
2024-02-02T01:01:21.435Z,3.31
2024-02-02T01:06:28.125Z,3.55
2024-02-02T01:11:30.648Z,3.82
2024-02-02T01:16:34.365Z,3.84
2024-02-02T01:21:38.020Z,3.79
2024-02-02T01:26:41.037Z,3.44
2024-02-02T01:31:43.533Z,3.36
2024-02-02T01:36:45.989Z,3.42
2024-02-02T01:41:49.718Z,3.62
2024-02-02T01:46:52.395Z,3.71
2024-02-02T01:51:55.700Z,3.68
2024-02-02T01:56:58.537Z,3.96
2024-02-02T02:02:04.895Z,4.02
2024-02-02T02:07:09.251Z,4.49
2024-02-02T02:12:11.809Z,4.51
2024-02-02T02:17:14.785Z,4.30
2024-02-02T02:22:17.670Z,4.31
2024-02-02T02:27:20.724Z,3.90
2024-02-02T02:32:23.335Z,4.07
2024-02-02T02:37:29.096Z,4.30
2024-02-02T02:42:34.282Z,4.54
2024-02-02T02:47:37.614Z,4.57
2024-02-02T02:52:40.615Z,4.38
2024-02-02T02:57:43.647Z,4.10
2024-02-02T03:02:50.856Z,3.97
2024-02-02T03:07:54.366Z,3.98
2024-02-02T03:12:57.509Z,3.89
2024-02-02T03:18:02.747Z,3.79
2024-02-02T03:23:06.016Z,3.76
2024-02-02T03:28:08.869Z,3.56
2024-02-02T03:33:11.448Z,3.27
2024-02-02T03:38:18.644Z,3.35
2024-02-02T03:43:21.036Z,3.41
2024-02-02T03:48:24.037Z,3.77
2024-02-02T03:53:26.981Z,4.23
2024-02-02T03:58:29.312Z,4.57
2024-02-02T04:03:33.873Z,4.89
2024-02-02T04:08:37.519Z,4.97
2024-02-02T04:13:40.708Z,5.11
2024-02-02T04:18:43.771Z,5.36
2024-02-02T04:23:46.724Z,5.34
2024-02-02T04:28:50.037Z,5.60
2024-02-02T04:33:53.189Z,5.52
2024-02-02T04:38:56.101Z,5.63
2024-02-02T04:43:59.153Z,5.59
2024-02-02T04:49:06.246Z,5.57
2024-02-02T04:54:11.681Z,5.65
2024-02-02T04:59:14.605Z,5.56
2024-02-02T05:04:17.073Z,5.61
2024-02-02T05:09:20.134Z,5.72
2024-02-02T05:14:23.211Z,5.76
2024-02-02T05:19:25.830Z,5.39
2024-02-02T05:24:42.588Z,5.40
2024-02-02T05:29:50.337Z,5.46
2024-02-02T05:34:55.777Z,5.40
2024-02-02T05:39:58.366Z,5.53
2024-02-02T05:45:03.456Z,5.44
2024-02-02T05:50:07.043Z,5.49
2024-02-02T05:55:09.816Z,5.42
2024-02-02T06:07:09.328Z,5.30
2024-02-02T06:12:11.719Z,5.21
2024-02-02T06:17:14.435Z,5.04
2024-02-02T06:22:21.353Z,5.06
2024-02-02T06:27:31.850Z,4.97
2024-02-02T06:32:36.728Z,5.24
2024-02-02T06:37:38.935Z,5.11
2024-02-02T06:43:02.414Z,5.02
2024-02-02T06:48:05.924Z,4.89
2024-02-02T06:53:09.339Z,4.72
2024-02-02T06:58:27.672Z,4.46
2024-02-02T07:03:34.330Z,4.10
2024-02-02T07:08:36.921Z,4.14
2024-02-02T07:13:50.883Z,4.00
2024-02-02T07:18:54.615Z,3.93
2024-02-02T07:23:58.725Z,3.92
2024-02-02T07:29:08.523Z,3.73
2024-02-02T07:34:30.363Z,3.50
2024-02-02T07:39:33.471Z,3.44
2024-02-02T07:44:36.476Z,3.35
2024-02-02T07:49:41.437Z,3.27
2024-02-02T07:54:43.659Z,3.38
2024-02-02T07:59:46.352Z,3.45
2024-02-02T08:04:50.943Z,3.64
2024-02-02T08:09:53.310Z,3.84
2024-02-02T08:14:55.482Z,3.76
2024-02-02T08:20:12.580Z,3.59
2024-02-02T08:25:15.588Z,3.51
2024-02-02T08:30:18.843Z,3.51
2024-02-02T08:35:29.952Z,3.18
2024-02-02T08:40:45.506Z,3.36
2024-02-02T08:46:06.220Z,3.40
2024-02-02T08:51:25.186Z,3.28
2024-02-02T08:56:28.330Z,3.26
2024-02-02T09:01:34.073Z,3.20
2024-02-02T09:06:45.431Z,3.06
2024-02-02T09:11:52.036Z,3.23
2024-02-02T09:16:55.729Z,3.17
2024-02-02T09:22:05.448Z,3.15
2024-02-02T09:27:14.061Z,3.15
2024-02-02T09:32:17.588Z,3.20
2024-02-02T09:37:31.061Z,3.12
2024-02-02T09:42:53.317Z,3.19
2024-02-02T09:48:12.866Z,3.11
2024-02-02T09:53:31.003Z,3.29
2024-02-02T09:59:02.455Z,3.26
2024-02-02T10:04:42.554Z,3.49
2024-02-02T10:10:16.780Z,3.48
2024-02-02T10:15:44.091Z,3.70
2024-02-02T10:21:18.512Z,3.62
2024-02-02T10:26:45.170Z,3.52
2024-02-02T10:32:05.610Z,3.62
2024-02-02T10:37:07.789Z,3.52
2024-02-02T10:42:39.780Z,3.57
2024-02-02T10:48:01.824Z,3.74
2024-02-02T10:53:18.682Z,3.38
2024-02-02T10:58:26.947Z,3.62
2024-02-02T11:03:42.857Z,3.57
2024-02-02T11:08:57.980Z,3.68
2024-02-02T11:14:48.205Z,3.91
2024-02-02T11:20:15.297Z,3.68
2024-02-02T11:25:30.960Z,3.62
2024-02-02T11:30:51.986Z,3.51
2024-02-02T11:36:16.086Z,3.67
2024-02-02T11:41:23.979Z,3.86
2024-02-02T11:46:28.730Z,3.83
2024-02-02T11:51:32.027Z,3.94
2024-02-02T11:56:39.879Z,3.96
2024-02-02T12:01:57.119Z,4.02
2024-02-02T12:07:20.522Z,3.90
2024-02-02T12:12:53.413Z,4.05
2024-02-02T12:17:56.013Z,3.91
2024-02-02T12:22:58.739Z,3.97
2024-02-02T12:28:01.173Z,3.99
2024-02-02T12:33:10.589Z,3.95
2024-02-02T12:38:22.052Z,3.96
2024-02-02T12:43:28.108Z,3.92
2024-02-02T12:48:30.520Z,3.97
2024-02-02T12:53:33.093Z,3.98
2024-02-02T12:58:38.439Z,3.99
2024-02-02T13:03:44.712Z,3.95
2024-02-02T13:08:47.974Z,4.15
2024-02-02T13:13:51.039Z,4.20
2024-02-02T13:18:53.385Z,4.22
2024-02-02T13:23:57.736Z,4.37
2024-02-02T13:29:00.668Z,4.20
2024-02-02T13:34:06.859Z,4.13
2024-02-02T13:39:20.283Z,4.09
2024-02-02T13:44:24.366Z,4.19
2024-02-02T13:49:33.744Z,3.97
2024-02-02T13:54:37.268Z,3.98
2024-02-02T13:59:40.254Z,3.92
2024-02-02T14:04:43.839Z,3.92
2024-02-02T14:10:09.522Z,4.05
2024-02-02T14:15:11.822Z,4.08
2024-02-02T14:20:17.810Z,4.10
2024-02-02T14:25:28.433Z,4.04
2024-02-02T14:30:33.664Z,4.10
2024-02-02T14:35:36.725Z,4.06
2024-02-02T14:40:39.944Z,3.94
2024-02-02T14:45:42.462Z,3.92
2024-02-02T14:50:45.267Z,3.91
2024-02-02T14:55:47.894Z,4.06
2024-02-02T15:00:51.650Z,4.01
2024-02-02T15:05:55.728Z,3.95
2024-02-02T15:10:58.113Z,4.12
2024-02-02T15:16:01.233Z,4.11
2024-02-02T15:21:04.189Z,4.09
2024-02-02T15:26:09.842Z,4.14
2024-02-02T15:31:13.329Z,4.13
2024-02-02T15:36:16.184Z,4.13
2024-02-02T15:41:20.273Z,3.95
2024-02-02T15:46:25.318Z,3.89
2024-02-02T15:51:27.729Z,3.83
2024-02-02T15:56:30.591Z,3.96
2024-02-02T16:01:33.477Z,3.89
2024-02-02T16:06:37.032Z,3.82
2024-02-02T16:11:39.372Z,3.92
2024-02-02T16:16:41.804Z,4.04
2024-02-02T16:21:45.355Z,4.10
2024-02-02T16:26:48.650Z,3.98
2024-02-02T16:31:51.575Z,3.92
2024-02-02T16:36:54.129Z,3.88
2024-02-02T16:41:59.571Z,3.81
2024-02-02T16:47:04.097Z,3.81
2024-02-02T16:52:06.921Z,3.96
2024-02-02T16:57:09.292Z,3.97
2024-02-02T17:02:12.205Z,3.87
2024-02-02T17:07:19.147Z,3.70
2024-02-02T17:12:23.840Z,3.68
2024-02-02T17:17:26.670Z,3.72
2024-02-02T17:22:29.228Z,3.55
2024-02-02T17:27:31.953Z,3.60
2024-02-02T17:32:40.013Z,3.76
2024-02-02T17:37:44.425Z,3.87
2024-02-02T17:42:48.562Z,3.73
2024-02-02T17:47:51.117Z,3.51
2024-02-02T17:52:54.045Z,3.08
2024-02-02T17:57:57.043Z,3.13
2024-02-02T18:02:59.881Z,3.36
2024-02-02T18:08:05.331Z,3.21
2024-02-02T18:13:08.763Z,3.18
2024-02-02T18:18:12.514Z,3.29
2024-02-02T18:23:14.972Z,2.94
2024-02-02T18:28:18.719Z,3.20
2024-02-02T18:33:21.754Z,2.97
2024-02-02T18:38:24.095Z,3.01
2024-02-02T18:43:26.677Z,3.15
2024-02-02T18:48:28.979Z,3.21
2024-02-02T18:53:31.275Z,2.90
2024-02-02T18:58:39.843Z,2.97
2024-02-02T19:03:46.152Z,3.03
2024-02-02T19:08:49.193Z,3.13
2024-02-02T19:13:52.061Z,3.05
2024-02-02T19:18:54.955Z,3.11
2024-02-02T19:23:57.901Z,2.92
2024-02-02T19:29:00.519Z,3.02
2024-02-02T19:34:03.780Z,2.84
2024-02-02T19:39:09.724Z,3.05
2024-02-02T19:44:12.559Z,3.08
2024-02-02T19:49:15.474Z,3.00
2024-02-02T19:54:17.793Z,2.90
2024-02-02T19:59:20.854Z,2.74
2024-02-02T20:04:25.125Z,2.77
2024-02-02T20:09:28.741Z,2.91
2024-02-02T20:14:31.544Z,2.77
2024-02-02T20:19:34.332Z,2.62
2024-02-02T20:24:42.338Z,2.52
2024-02-02T20:29:44.646Z,2.79
2024-02-02T20:34:47.421Z,2.94
2024-02-02T20:39:49.744Z,2.73
2024-02-02T20:44:56.387Z,2.74
2024-02-02T20:49:58.674Z,2.94
2024-02-02T20:55:04.241Z,2.79
2024-02-02T21:00:12.451Z,2.93
2024-02-02T21:05:14.937Z,2.87
2024-02-02T21:10:17.174Z,2.63
2024-02-02T21:15:20.137Z,2.74
2024-02-02T21:20:23.541Z,2.68
2024-02-02T21:25:25.763Z,2.70
2024-02-02T21:30:27.939Z,2.78
2024-02-02T21:35:30.115Z,2.54
2024-02-02T21:40:32.454Z,2.57
2024-02-02T21:45:37.014Z,2.53
2024-02-02T21:50:43.126Z,2.78
2024-02-02T21:55:46.904Z,2.64
2024-02-02T22:00:51.811Z,2.79
2024-02-02T22:05:54.147Z,3.12
2024-02-02T22:10:56.988Z,3.23
2024-02-02T22:15:59.699Z,3.33
2024-02-02T22:21:01.940Z,3.39
2024-02-02T22:26:05.040Z,3.43
2024-02-02T22:31:07.311Z,3.47
2024-02-02T22:36:25.552Z,3.47
2024-02-02T22:41:33.466Z,3.44
2024-02-02T22:46:37.338Z,3.34
2024-02-02T22:51:49.838Z,3.34
2024-02-02T22:56:52.274Z,3.39
2024-02-02T23:01:54.409Z,3.22
2024-02-02T23:06:57.215Z,3.15
2024-02-02T23:11:59.999Z,3.03
2024-02-02T23:17:02.245Z,3.08
2024-02-02T23:22:04.748Z,3.26
2024-02-02T23:27:07.347Z,3.15
2024-02-02T23:32:09.575Z,3.22
2024-02-02T23:37:11.759Z,3.24
2024-02-02T23:42:13.987Z,3.23
2024-02-02T23:47:16.275Z,3.14
2024-02-02T23:52:18.792Z,3.24
2024-02-02T23:57:25.181Z,3.23
